createdAt,value
2018-03-30T00:02:03.142Z,88.22
2018-03-30T00:04:30.612Z,88.08
2018-03-30T00:07:12.957Z,88.05
2018-03-30T00:09:52.456Z,87.72
2018-03-30T00:12:19.949Z,87.54
2018-03-30T00:14:47.457Z,87.44
2018-03-30T00:17:14.937Z,87.28
2018-03-30T00:19:42.458Z,87.47
2018-03-30T00:22:09.934Z,88.08
2018-03-30T00:24:37.493Z,87.53
2018-03-30T00:27:04.945Z,87.13
2018-03-30T00:29:32.411Z,87.26
2018-03-30T00:31:59.910Z,86.87
2018-03-30T00:34:27.377Z,86.88
2018-03-30T00:36:54.833Z,87.09
2018-03-30T00:39:22.425Z,87.11
2018-03-30T00:41:49.892Z,87.36
2018-03-30T00:44:17.366Z,87.23
2018-03-30T00:46:44.867Z,87.18
2018-03-30T00:49:12.491Z,87.24
2018-03-30T00:51:39.960Z,87.31
2018-03-30T00:54:07.458Z,87.12
2018-03-30T00:56:34.919Z,87.15
2018-03-30T00:59:02.388Z,87.32
2018-03-30T01:01:29.910Z,87.42
2018-03-30T01:03:57.435Z,87.40
2018-03-30T01:06:24.900Z,87.30
2018-03-30T01:08:52.406Z,87.37
2018-03-30T01:11:19.896Z,87.47
2018-03-30T01:13:47.353Z,87.66
2018-03-30T01:16:14.895Z,87.90
2018-03-30T01:18:42.350Z,88.01
2018-03-30T01:21:09.821Z,87.96
2018-03-30T01:23:37.323Z,88.25
2018-03-30T01:26:04.790Z,88.45
2018-03-30T01:28:32.275Z,88.44
2018-03-30T01:30:59.759Z,88.59
2018-03-30T01:33:27.242Z,88.75
2018-03-30T01:35:54.693Z,89.01
2018-03-30T01:38:22.173Z,89.16
2018-03-30T01:40:49.649Z,89.37
2018-03-30T01:43:17.119Z,89.56
2018-03-30T01:45:44.593Z,89.83
2018-03-30T01:48:12.055Z,89.96
2018-03-30T01:50:39.537Z,90.24
2018-03-30T01:53:07.022Z,90.49
2018-03-30T01:55:34.474Z,90.70
2018-03-30T01:58:01.944Z,90.74
2018-03-30T02:00:29.424Z,90.84
2018-03-30T02:02:56.882Z,90.77
2018-03-30T02:05:24.355Z,90.66
2018-03-30T02:07:51.860Z,90.77
2018-03-30T02:10:19.341Z,90.89
2018-03-30T02:12:46.813Z,90.77
2018-03-30T02:15:14.299Z,90.75
2018-03-30T02:17:41.778Z,90.76
2018-03-30T02:20:09.250Z,90.82
2018-03-30T02:22:36.760Z,90.99
2018-03-30T02:25:04.302Z,91.29
2018-03-30T02:27:31.832Z,91.51
2018-03-30T02:29:59.337Z,91.47
2018-03-30T02:32:26.804Z,91.25
2018-03-30T02:34:54.276Z,91.02
2018-03-30T02:37:21.777Z,90.89
2018-03-30T02:39:49.343Z,90.76
2018-03-30T02:42:16.809Z,90.72
2018-03-30T02:44:44.311Z,90.74
2018-03-30T02:47:11.785Z,90.81
2018-03-30T02:49:39.266Z,90.82
2018-03-30T02:52:06.775Z,90.85
2018-03-30T02:54:34.242Z,90.90
2018-03-30T02:57:01.714Z,90.95
2018-03-30T02:59:29.309Z,90.87
2018-03-30T03:01:56.775Z,90.62
2018-03-30T03:04:24.246Z,90.57
2018-03-30T03:06:51.813Z,90.28
2018-03-30T03:09:19.299Z,90.25
2018-03-30T03:11:46.758Z,90.45
2018-03-30T03:14:14.245Z,90.46
2018-03-30T03:16:41.705Z,90.50
2018-03-30T03:19:09.195Z,90.54
2018-03-30T03:21:36.662Z,90.53
2018-03-30T03:24:04.131Z,90.60
2018-03-30T03:26:31.612Z,90.81
2018-03-30T03:28:59.092Z,91.03
2018-03-30T03:31:26.603Z,91.15
2018-03-30T03:33:54.113Z,90.99
2018-03-30T03:36:21.576Z,90.73
2018-03-30T03:38:49.038Z,90.40
2018-03-30T03:41:16.590Z,89.84
2018-03-30T03:43:44.047Z,89.49
2018-03-30T03:46:11.516Z,89.05
2018-03-30T03:48:39.005Z,88.83
2018-03-30T03:51:06.462Z,88.79
2018-03-30T03:53:33.981Z,89.01
2018-03-30T03:56:01.439Z,88.83
2018-03-30T03:58:28.894Z,88.78
2018-03-30T04:00:56.439Z,88.61
2018-03-30T04:03:23.915Z,88.48
2018-03-30T04:05:51.399Z,88.74
2018-03-30T04:08:18.889Z,88.92
2018-03-30T04:10:46.938Z,88.14
2018-03-30T04:13:14.423Z,87.51
2018-03-30T04:15:41.912Z,87.36
2018-03-30T04:18:09.370Z,87.36
2018-03-30T04:20:36.853Z,87.32
2018-03-30T04:23:04.327Z,87.07
2018-03-30T04:25:31.978Z,86.73
2018-03-30T04:27:59.893Z,86.57
2018-03-30T04:30:27.403Z,86.60
2018-03-30T04:32:54.932Z,86.75
2018-03-30T04:35:22.429Z,86.71
2018-03-30T04:37:49.903Z,87.44
2018-03-30T04:40:17.379Z,87.76
2018-03-30T04:42:44.866Z,88.06
2018-03-30T04:45:12.325Z,88.23
2018-03-30T04:47:39.802Z,88.27
2018-03-30T04:50:07.314Z,87.62
2018-03-30T04:52:34.770Z,86.88
2018-03-30T04:55:02.230Z,86.07
2018-03-30T04:57:29.703Z,85.83
2018-03-30T04:59:57.185Z,85.82
2018-03-30T05:02:24.757Z,85.47
2018-03-30T05:04:52.218Z,84.94
2018-03-30T05:07:19.718Z,84.46
2018-03-30T05:09:47.198Z,84.09
2018-03-30T05:12:14.678Z,83.91
2018-03-30T05:14:42.214Z,83.61
2018-03-30T05:17:09.682Z,83.48
2018-03-30T05:19:37.226Z,83.11
2018-03-30T05:22:04.722Z,83.05
2018-03-30T05:24:32.202Z,81.84
2018-03-30T05:26:59.666Z,82.08
2018-03-30T05:29:27.154Z,81.60
2018-03-30T05:31:54.622Z,81.72
2018-03-30T05:34:22.096Z,81.92
2018-03-30T05:36:49.574Z,81.82
2018-03-30T05:39:17.059Z,81.29
2018-03-30T05:41:44.547Z,80.93
2018-03-30T05:44:12.117Z,81.07
2018-03-30T05:46:39.583Z,80.57
2018-03-30T05:49:07.067Z,79.93
2018-03-30T05:51:34.567Z,80.04
2018-03-30T05:54:02.035Z,80.06
2018-03-30T05:56:29.515Z,79.74
2018-03-30T05:58:56.995Z,79.08
2018-03-30T06:01:24.512Z,78.61
2018-03-30T06:03:52.071Z,78.39
2018-03-30T06:06:19.547Z,77.85
2018-03-30T06:08:47.017Z,76.91
2018-03-30T06:11:14.556Z,74.35
2018-03-30T06:13:42.077Z,74.08
2018-03-30T06:16:09.621Z,73.35
2018-03-30T06:18:37.091Z,72.12
2018-03-30T06:21:04.570Z,70.83
2018-03-30T06:23:32.046Z,70.71
2018-03-30T06:28:33.331Z,71.86
2018-03-30T06:31:00.851Z,71.85
2018-03-30T06:33:28.414Z,71.76
2018-03-30T06:35:55.899Z,71.39
2018-03-30T06:38:23.370Z,71.54
2018-03-30T06:40:50.830Z,71.46
2018-03-30T06:43:18.334Z,70.98
2018-03-30T06:45:45.802Z,70.70
2018-03-30T06:48:13.361Z,70.64
2018-03-30T06:50:40.852Z,70.96
2018-03-30T06:53:08.350Z,71.96
2018-03-30T06:55:35.844Z,70.79
2018-03-30T06:58:03.323Z,70.46
2018-03-30T07:00:30.793Z,70.00
2018-03-30T07:02:58.358Z,70.24
2018-03-30T07:05:25.832Z,69.79
2018-03-30T07:07:53.425Z,69.75
2018-03-30T07:10:20.984Z,69.89
2018-03-30T07:12:48.455Z,69.76
2018-03-30T07:15:15.962Z,69.73
2018-03-30T07:17:43.439Z,69.78
2018-03-30T07:20:10.907Z,69.19
2018-03-30T07:22:38.382Z,68.57
2018-03-30T07:25:05.960Z,69.01
2018-03-30T07:27:33.434Z,69.24
2018-03-30T07:30:00.950Z,68.28
2018-03-30T07:32:28.411Z,67.55
2018-03-30T07:34:55.886Z,67.24
2018-03-30T07:37:23.419Z,68.08
2018-03-30T07:39:50.881Z,67.66
2018-03-30T07:42:18.343Z,66.75
2018-03-30T07:44:45.835Z,66.08
2018-03-30T07:47:13.306Z,66.53
2018-03-30T07:49:40.876Z,66.28
2018-03-30T07:52:08.398Z,65.51
2018-03-30T07:54:35.898Z,65.98
2018-03-30T07:57:03.350Z,66.91
2018-03-30T07:59:30.941Z,66.68
2018-03-30T08:01:58.402Z,66.44
2018-03-30T08:04:25.865Z,66.15
2018-03-30T08:06:53.422Z,66.45
2018-03-30T08:09:20.883Z,65.77
2018-03-30T08:11:48.358Z,66.49
2018-03-30T08:14:15.831Z,66.63
2018-03-30T08:16:43.295Z,67.01
2018-03-30T08:19:10.791Z,65.19
2018-03-30T08:21:38.275Z,65.02
2018-03-30T08:24:05.745Z,64.85
2018-03-30T08:26:33.230Z,64.00
2018-03-30T08:29:00.703Z,63.27
2018-03-30T08:31:28.201Z,62.79
2018-03-30T08:33:55.746Z,62.28
2018-03-30T08:36:23.202Z,62.73
2018-03-30T08:38:50.699Z,62.61
2018-03-30T08:41:18.161Z,62.08
2018-03-30T08:43:45.682Z,61.91
2018-03-30T08:46:13.172Z,62.79
2018-03-30T08:48:40.633Z,63.11
2018-03-30T08:51:08.306Z,63.38
2018-03-30T08:53:35.813Z,63.88
2018-03-30T08:56:03.270Z,64.74
2018-03-30T08:58:30.739Z,65.47
2018-03-30T09:00:58.209Z,66.70
2018-03-30T09:03:25.775Z,66.34
2018-03-30T09:05:53.260Z,65.86
2018-03-30T09:08:20.766Z,65.26
2018-03-30T09:10:48.235Z,64.69
2018-03-30T09:13:15.739Z,64.75
2018-03-30T09:15:43.330Z,63.81
2018-03-30T09:18:10.786Z,63.96
2018-03-30T09:20:38.282Z,64.73
2018-03-30T09:23:05.857Z,64.41
2018-03-30T09:25:33.455Z,63.93
2018-03-30T09:28:00.916Z,64.68
2018-03-30T09:30:28.367Z,64.86
2018-03-30T09:32:55.846Z,65.13
2018-03-30T09:35:23.306Z,64.85
2018-03-30T09:37:50.819Z,63.67
2018-03-30T09:40:18.316Z,63.96
2018-03-30T09:42:45.779Z,64.56
2018-03-30T09:45:13.436Z,64.18
2018-03-30T09:47:40.905Z,64.30
2018-03-30T09:50:08.363Z,64.52
2018-03-30T09:52:35.894Z,64.79
2018-03-30T09:55:03.355Z,64.10
2018-03-30T09:57:30.926Z,63.68
2018-03-30T09:59:58.716Z,63.53
2018-03-30T10:02:29.032Z,62.37
2018-03-30T10:05:01.546Z,62.73
2018-03-30T10:07:29.006Z,62.55
2018-03-30T10:09:56.486Z,62.18
2018-03-30T10:12:24.023Z,61.03
2018-03-30T10:14:51.547Z,60.32
2018-03-30T10:17:19.013Z,61.67
2018-03-30T10:19:46.490Z,60.72
2018-03-30T10:22:13.998Z,59.53
2018-03-30T10:24:41.462Z,58.55
2018-03-30T10:27:08.971Z,58.63
2018-03-30T10:29:36.472Z,58.24
2018-03-30T10:32:03.935Z,58.90
2018-03-30T10:34:31.423Z,57.49
2018-03-30T10:36:58.972Z,57.55
2018-03-30T10:39:26.501Z,57.06
2018-03-30T10:41:53.982Z,56.63
2018-03-30T10:44:21.434Z,56.94
2018-03-30T10:46:48.929Z,56.72
2018-03-30T10:49:16.411Z,57.37
2018-03-30T10:51:43.936Z,57.76
2018-03-30T10:54:11.387Z,57.87
2018-03-30T10:56:38.898Z,57.79
2018-03-30T10:59:06.354Z,57.55
2018-03-30T11:01:33.823Z,56.77
2018-03-30T11:04:01.370Z,56.22
2018-03-30T11:06:28.826Z,56.26
2018-03-30T11:08:56.390Z,56.02
2018-03-30T11:11:23.862Z,55.60
2018-03-30T11:13:51.330Z,56.26
2018-03-30T11:16:18.826Z,57.28
2018-03-30T11:18:46.302Z,56.57
2018-03-30T11:21:13.773Z,56.64
2018-03-30T11:23:41.246Z,56.21
2018-03-30T11:26:08.710Z,54.65
2018-03-30T11:28:36.255Z,55.70
2018-03-30T11:31:03.746Z,55.18
2018-03-30T11:33:31.218Z,55.83
2018-03-30T11:35:58.697Z,55.50
2018-03-30T11:38:26.167Z,54.42
2018-03-30T11:40:53.650Z,54.65
2018-03-30T11:43:21.216Z,55.13
2018-03-30T11:45:48.755Z,54.45
2018-03-30T11:48:16.248Z,54.83
2018-03-30T11:50:43.737Z,53.63
2018-03-30T11:53:11.239Z,52.46
2018-03-30T11:55:38.787Z,52.64
2018-03-30T11:58:06.246Z,51.52
2018-03-30T12:00:33.703Z,52.41
2018-03-30T12:03:01.208Z,51.85
2018-03-30T12:05:28.727Z,51.26
2018-03-30T12:07:56.269Z,50.83
2018-03-30T12:10:23.747Z,50.66
2018-03-30T12:12:51.306Z,50.09
2018-03-30T12:15:18.785Z,49.55
2018-03-30T12:17:46.245Z,51.18
2018-03-30T12:20:13.711Z,52.43
2018-03-30T12:22:41.695Z,49.76
2018-03-30T12:25:09.263Z,48.42
2018-03-30T12:27:36.736Z,47.54
2018-03-30T12:30:04.219Z,47.48
2018-03-30T12:32:31.688Z,47.20
2018-03-30T12:34:59.251Z,47.11
2018-03-30T12:37:26.742Z,48.03
2018-03-30T12:39:54.292Z,47.55
2018-03-30T12:42:21.804Z,47.28
2018-03-30T12:44:50.094Z,45.67
2018-03-30T12:47:17.656Z,45.93
2018-03-30T12:49:45.214Z,47.01
2018-03-30T12:52:12.666Z,48.12
2018-03-30T12:54:40.144Z,49.13
2018-03-30T12:57:07.955Z,49.22
2018-03-30T12:59:35.466Z,45.68
2018-03-30T13:02:02.957Z,45.75
2018-03-30T13:04:30.416Z,46.96
2018-03-30T13:06:57.932Z,46.69
2018-03-30T13:09:25.508Z,46.28
2018-03-30T13:11:53.066Z,45.23
2018-03-30T13:14:20.697Z,44.54
2018-03-30T13:16:48.321Z,44.84
2018-03-30T13:19:15.788Z,47.21
2018-03-30T13:21:43.310Z,47.07
2018-03-30T13:24:10.802Z,46.66
2018-03-30T13:26:38.296Z,46.92
2018-03-30T13:29:05.794Z,46.58
2018-03-30T13:31:33.319Z,47.41
2018-03-30T13:34:00.828Z,48.75
2018-03-30T13:36:28.374Z,49.94
2018-03-30T13:38:55.834Z,49.90
2018-03-30T13:41:23.313Z,49.69
2018-03-30T13:43:50.803Z,49.56
2018-03-30T13:46:18.307Z,48.63
2018-03-30T13:48:45.769Z,48.32
2018-03-30T13:51:17.969Z,48.19
2018-03-30T13:53:51.380Z,47.81
2018-03-30T13:56:18.913Z,48.54
2018-03-30T13:58:50.214Z,46.72
2018-03-30T14:01:19.586Z,47.57
2018-03-30T14:03:49.016Z,48.00
2018-03-30T14:06:31.015Z,48.19
2018-03-30T14:12:13.988Z,49.00
2018-03-30T14:14:41.598Z,48.33
2018-03-30T14:17:15.074Z,45.69
2018-03-30T14:19:42.659Z,45.86
2018-03-30T14:22:14.802Z,47.71
2018-03-30T14:27:52.085Z,47.47
2018-03-30T14:30:24.465Z,47.18
2018-03-30T14:32:51.958Z,47.70
2018-03-30T14:35:24.354Z,48.12
2018-03-30T14:37:52.442Z,47.96
2018-03-30T14:40:34.792Z,48.35
2018-03-30T14:43:06.165Z,48.47
2018-03-30T14:45:35.558Z,48.83
2018-03-30T14:48:12.053Z,48.28
2018-03-30T14:53:42.578Z,48.15
2018-03-30T14:56:12.903Z,48.60
2018-03-30T14:58:47.019Z,48.49
2018-03-30T15:01:18.168Z,47.89
2018-03-30T15:03:56.469Z,47.84
2018-03-30T15:06:33.935Z,47.81
2018-03-30T15:12:21.335Z,48.00
2018-03-30T15:14:50.406Z,47.26
2018-03-30T15:17:28.476Z,47.59
2018-03-30T15:19:56.709Z,47.65
2018-03-30T15:22:28.281Z,48.14
2018-03-30T15:24:57.466Z,48.76
2018-03-30T15:27:37.658Z,48.72
2018-03-30T15:30:11.033Z,48.95
2018-03-30T15:35:42.968Z,49.26
2018-03-30T15:38:10.465Z,49.63
2018-03-30T15:40:37.947Z,48.98
2018-03-30T15:43:07.931Z,49.72
2018-03-30T15:45:37.130Z,49.50
2018-03-30T15:48:04.970Z,49.20
2018-03-30T15:50:32.471Z,49.07
2018-03-30T15:52:59.942Z,49.16
2018-03-30T15:55:27.434Z,49.10
2018-03-30T15:57:54.897Z,49.39
2018-03-30T16:00:22.381Z,49.15
2018-03-30T16:02:49.877Z,48.10
2018-03-30T16:05:17.350Z,47.13
2018-03-30T16:07:44.818Z,46.75
2018-03-30T16:12:50.616Z,45.91
2018-03-30T16:15:18.086Z,47.25
2018-03-30T16:17:45.567Z,47.82
2018-03-30T16:20:12.514Z,47.35
2018-03-30T16:22:39.433Z,47.59
2018-03-30T16:25:06.374Z,48.92
2018-03-30T16:27:33.321Z,49.66
2018-03-30T16:30:00.254Z,50.46
2018-03-30T16:32:27.225Z,50.65
2018-03-30T16:34:54.159Z,51.48
2018-03-30T16:37:21.179Z,51.68
2018-03-30T16:39:48.124Z,52.63
2018-03-30T16:42:15.129Z,52.29
2018-03-30T16:44:42.078Z,52.92
2018-03-30T16:47:08.998Z,53.06
2018-03-30T16:49:36.003Z,53.33
2018-03-30T16:52:02.923Z,53.64
2018-03-30T16:54:30.171Z,53.26
2018-03-30T16:56:57.115Z,53.23
2018-03-30T16:59:24.026Z,53.15
2018-03-30T17:01:50.947Z,52.91
2018-03-30T17:04:17.926Z,52.66
2018-03-30T17:06:44.926Z,52.68
2018-03-30T17:09:11.889Z,52.09
2018-03-30T17:11:38.830Z,51.53
2018-03-30T17:14:05.764Z,51.51
2018-03-30T17:16:32.721Z,51.35
2018-03-30T17:18:59.668Z,51.09
2018-03-30T17:21:26.578Z,51.61
2018-03-30T17:23:53.515Z,51.97
2018-03-30T17:26:20.482Z,52.11
2018-03-30T17:28:47.389Z,52.22
2018-03-30T17:31:14.306Z,52.62
2018-03-30T17:33:41.251Z,52.91
2018-03-30T17:36:08.166Z,53.14
2018-03-30T17:38:35.091Z,53.47
2018-03-30T17:41:02.163Z,53.80
2018-03-30T17:43:29.091Z,54.30
2018-03-30T17:45:56.006Z,54.61
2018-03-30T17:48:22.997Z,55.10
2018-03-30T17:50:49.987Z,55.34
2018-03-30T17:53:16.910Z,55.51
2018-03-30T17:55:43.864Z,55.99
2018-03-30T17:58:10.786Z,56.20
2018-03-30T18:00:37.705Z,55.90
2018-03-30T18:03:04.677Z,56.13
2018-03-30T18:05:31.592Z,56.25
2018-03-30T18:07:58.522Z,56.08
2018-03-30T18:10:25.485Z,56.17
2018-03-30T18:12:52.410Z,55.87
2018-03-30T18:15:19.344Z,55.70
2018-03-30T18:17:46.295Z,56.06
2018-03-30T18:20:13.205Z,55.83
2018-03-30T18:22:40.147Z,55.84
2018-03-30T18:25:07.084Z,55.80
2018-03-30T18:27:34.003Z,56.02
2018-03-30T18:30:00.949Z,56.16
2018-03-30T18:32:27.898Z,56.54
2018-03-30T18:34:54.897Z,56.61
2018-03-30T18:37:21.844Z,57.02
2018-03-30T18:39:48.828Z,57.21
2018-03-30T18:42:15.756Z,57.62
2018-03-30T18:44:42.676Z,58.03
2018-03-30T18:47:09.664Z,58.32
2018-03-30T18:49:36.601Z,58.89
2018-03-30T18:52:03.520Z,59.24
2018-03-30T18:54:30.459Z,59.69
2018-03-30T18:56:57.400Z,60.23
2018-03-30T18:59:24.410Z,60.43
2018-03-30T19:01:51.363Z,60.99
2018-03-30T19:04:18.280Z,61.34
2018-03-30T19:06:45.474Z,61.48
2018-03-30T19:09:12.406Z,61.79
2018-03-30T19:11:39.340Z,61.93
2018-03-30T19:14:06.301Z,62.08
2018-03-30T19:16:33.229Z,62.47
2018-03-30T19:19:00.142Z,62.62
2018-03-30T19:21:27.124Z,62.78
2018-03-30T19:23:54.048Z,63.10
2018-03-30T19:26:20.975Z,63.14
2018-03-30T19:28:47.964Z,63.14
2018-03-30T19:31:14.882Z,63.57
2018-03-30T19:33:41.826Z,63.48
2018-03-30T19:36:09.126Z,63.68
2018-03-30T19:38:36.069Z,63.98
2018-03-30T19:41:03.097Z,64.24
2018-03-30T19:43:30.178Z,64.23
2018-03-30T19:45:57.102Z,64.30
2018-03-30T19:48:24.045Z,64.31
2018-03-30T19:50:50.989Z,64.42
2018-03-30T19:53:17.922Z,64.30
2018-03-30T19:55:44.874Z,64.36
2018-03-30T19:58:11.814Z,64.25
2018-03-30T20:00:38.739Z,64.53
2018-03-30T20:03:05.734Z,64.62
2018-03-30T20:05:32.698Z,64.62
2018-03-30T20:07:59.623Z,64.52
2018-03-30T20:10:26.637Z,64.65
2018-03-30T20:12:53.563Z,64.65
2018-03-30T20:15:20.478Z,64.59
2018-03-30T20:17:47.422Z,64.75
2018-03-30T20:20:14.352Z,64.54
2018-03-30T20:22:41.270Z,64.62
2018-03-30T20:25:08.216Z,64.78
2018-03-30T20:27:35.148Z,64.57
2018-03-30T20:30:02.103Z,64.68
2018-03-30T20:32:29.060Z,64.65
2018-03-30T20:34:55.974Z,64.61
2018-03-30T20:37:22.931Z,64.38
2018-03-30T20:39:49.858Z,64.32
2018-03-30T20:42:16.782Z,64.61
2018-03-30T20:44:43.714Z,64.50
2018-03-30T20:47:10.658Z,64.61
2018-03-30T20:49:37.592Z,64.34
2018-03-30T20:52:04.633Z,64.39
2018-03-30T20:54:31.604Z,64.50
2018-03-30T20:56:58.543Z,64.32
2018-03-30T20:59:25.560Z,64.23
2018-03-30T21:01:52.496Z,64.27
2018-03-30T21:04:19.410Z,64.18
2018-03-30T21:06:46.380Z,64.19
2018-03-30T21:09:13.368Z,64.49
2018-03-30T21:11:40.302Z,64.53
2018-03-30T21:14:07.283Z,64.42
2018-03-30T21:16:34.217Z,64.55
2018-03-30T21:19:01.151Z,64.57
2018-03-30T21:21:28.095Z,64.68
2018-03-30T21:23:55.021Z,64.93
2018-03-30T21:26:21.982Z,64.94
2018-03-30T21:28:48.919Z,65.12
2018-03-30T21:31:15.851Z,65.08
2018-03-30T21:33:42.797Z,65.42
2018-03-30T21:36:09.722Z,65.60
2018-03-30T21:38:36.641Z,65.64
2018-03-30T21:41:03.590Z,65.73
2018-03-30T21:43:30.513Z,65.88
2018-03-30T21:45:57.426Z,66.42
2018-03-30T21:48:24.365Z,65.99
2018-03-30T21:50:51.289Z,66.13
2018-03-30T21:53:18.231Z,66.62
2018-03-30T21:55:45.176Z,67.02
2018-03-30T21:58:12.180Z,67.05
2018-03-30T22:00:39.107Z,67.33
2018-03-30T22:03:06.029Z,67.54
2018-03-30T22:05:33.719Z,68.08
2018-03-30T22:08:00.641Z,67.93
2018-03-30T22:10:27.760Z,68.08
2018-03-30T22:12:54.679Z,68.28
2018-03-30T22:15:21.610Z,68.68
2018-03-30T22:17:48.587Z,69.45
2018-03-30T22:20:15.516Z,68.96
2018-03-30T22:22:42.498Z,69.36
2018-03-30T22:25:09.418Z,69.49
2018-03-30T22:27:36.347Z,69.84
2018-03-30T22:30:03.296Z,69.92
2018-03-30T22:32:30.239Z,70.36
2018-03-30T22:34:57.245Z,70.74
2018-03-30T22:37:24.254Z,70.35
2018-03-30T22:39:51.181Z,70.55
2018-03-30T22:42:18.092Z,70.59
2018-03-30T22:44:45.042Z,70.73
2018-03-30T22:47:12.054Z,70.70
2018-03-30T22:49:39.074Z,71.44
2018-03-30T22:52:06.017Z,70.65
2018-03-30T22:54:32.962Z,70.89
2018-03-30T22:57:00.058Z,71.24
2018-03-30T22:59:27.004Z,71.24
2018-03-30T23:01:53.929Z,71.78
2018-03-30T23:04:20.904Z,71.71
2018-03-30T23:06:47.916Z,71.91
2018-03-30T23:09:14.833Z,72.10
2018-03-30T23:11:41.783Z,72.09
2018-03-30T23:14:08.702Z,72.25
2018-03-30T23:16:36.039Z,72.45
2018-03-30T23:19:03.054Z,72.70
2018-03-30T23:21:29.970Z,72.87
2018-03-30T23:23:56.907Z,73.00
2018-03-30T23:26:23.854Z,72.95
2018-03-30T23:28:50.787Z,73.04
2018-03-30T23:31:17.994Z,73.29
2018-03-30T23:33:45.019Z,73.47
2018-03-30T23:36:11.983Z,73.60
2018-03-30T23:38:38.922Z,73.80
2018-03-30T23:41:06.008Z,73.97
2018-03-30T23:43:33.100Z,74.08
2018-03-30T23:46:00.101Z,74.19
2018-03-30T23:48:27.056Z,74.41
2018-03-30T23:50:54.051Z,74.44
2018-03-30T23:53:21.022Z,74.66
2018-03-30T23:55:47.974Z,74.83
2018-03-30T23:58:14.933Z,74.93
